Date,TemperatureHighF,TemperatureAvgF,TemperatureLowF,DewpointHighF,DewpointAvgF,DewpointLowF,HumidityHigh,HumidityAvg,HumidityLow,PressureMaxIn,PressureMinIn,WindSpeedMaxMPH,WindSpeedAvgMPH,GustSpeedMaxMPH,PrecipitationSumIn
2013-9-1,78.2,67.3,56.6,63.2,59.5,55.5,97,78,54,29.89,29.79,8,0,8,0.00
2013-9-2,79.2,68.1,57.8,62.8,59.0,56.4,96,75,49,29.94,29.85,9,0,9,0.00
2013-9-3,70.3,63.8,59.1,65.3,61.4,58.0,97,92,74,30.02,29.93,5,0,6,0.22
2013-9-4,66.9,62.3,58.0,62.9,60.2,56.9,97,93,85,30.05,29.99,6,0,6,0.01
2013-9-5,68.8,62.7,58.7,63.8,60.4,57.6,98,92,81,30.04,29.92,8,0,9,0.75
2013-9-6,69.0,62.9,59.6,65.7,61.0,58.7,98,94,82,30.11,29.95,6,0,6,1.18
2013-9-7,70.0,63.7,58.5,63.6,60.5,57.4,97,90,69,30.11,30.01,5,0,6,0.00
2013-9-8,75.2,64.2,56.6,64.9,60.2,55.8,98,88,65,30.11,30.02,6,0,8,0.00
2013-9-9,74.9,64.2,57.0,65.9,60.4,56.1,98,88,68,30.07,29.97,6,0,7,0.00
2013-9-10,76.0,64.6,56.4,66.4,60.7,55.4,98,88,68,30.00,29.88,9,1,10,0.00
2013-9-11,89.9,70.0,57.4,69.6,62.4,56.6,98,80,43,29.94,29.86,6,0,7,0.00
2013-9-12,75.9,66.5,58.7,65.6,61.9,57.7,97,86,65,29.99,29.90,6,0,7,0.00
2013-9-13,65.6,62.6,58.7,62.4,60.6,57.7,97,93,88,29.97,29.87,5,0,6,0.00
2013-9-14,66.7,63.0,59.1,63.2,60.9,58.0,97,93,86,29.88,29.73,3,0,3,0.00
2013-9-15,65.9,62.1,59.3,63.3,60.7,58.4,98,95,88,29.82,29.71,6,0,7,0.30
2013-9-16,66.3,60.7,56.2,61.6,58.6,55.1,98,93,81,29.93,29.81,11,0,11,0.04
2013-9-17,61.4,56.7,53.4,56.0,54.1,52.4,97,91,75,29.94,29.87,5,0,7,0.00
2013-9-18,66.3,56.8,51.2,57.3,52.9,49.5,97,87,61,30.07,29.94,8,0,9,0.00
2013-9-19,77.5,59.3,44.9,58.5,50.2,44.0,98,76,37,30.05,29.76,7,0,10,0.00
2013-9-20,73.4,60.8,49.9,59.7,53.3,47.6,97,79,48,29.76,29.59,7,0,8,0.06
2013-9-21,68.5,60.2,55.4,58.1,55.2,52.1,97,84,56,29.71,29.65,8,0,8,0.00
2013-9-22,60.4,56.7,53.8,56.9,53.5,50.0,97,89,69,29.75,29.58,13,0,18,0.46
2013-9-23,60.0,55.6,50.8,56.0,52.7,49.3,96,90,81,29.97,29.74,18,0,18,0.05
2013-9-24,61.4,53.1,48.7,53.6,49.3,47.5,100,88,61,29.96,29.84,8,0,9,0.04
2013-9-25,55.3,50.7,45.9,52.3,48.9,44.8,97,94,78,30.03,29.86,4,0,6,0.05
2013-9-26,59.5,49.8,42.2,52.0,46.9,41.1,98,90,70,30.14,30.03,7,0,10,0.00
2013-9-27,56.3,53.3,48.3,53.8,50.7,46.9,96,91,85,30.13,29.85,10,0,14,0.08
2013-9-28,59.9,55.2,50.5,58.3,54.0,49.4,97,96,90,29.86,29.35,20,1,26,1.38
2013-9-29,55.9,52.2,50.2,53.1,50.1,48.6,96,93,81,29.58,29.17,16,1,17,0.66
2013-9-30,55.1,50.1,47.2,52.7,48.6,45.8,100,95,89,29.93,29.45,15,1,15,0.74